sensor_id;sensor_type;location;lat;lon;timestamp;P1;durP1;ratioP1;P2;durP2;ratioP2
39442;SDS011;25147;52.142;9.960;2023-08-20T00:02:29;28.27;;;25.63;;
39442;SDS011;25147;52.142;9.960;2023-08-20T00:04:59;27.73;;;25.13;;
39442;SDS011;25147;52.142;9.960;2023-08-20T00:07:31;28.75;;;25.80;;
39442;SDS011;25147;52.142;9.960;2023-08-20T00:09:59;28.08;;;25.23;;
39442;SDS011;25147;52.142;9.960;2023-08-20T00:12:28;30.33;;;27.25;;
39442;SDS011;25147;52.142;9.960;2023-08-20T00:15:00;29.15;;;26.63;;
39442;SDS011;25147;52.142;9.960;2023-08-20T00:17:34;31.35;;;28.33;;
39442;SDS011;25147;52.142;9.960;2023-08-20T00:20:07;28.83;;;26.02;;
39442;SDS011;25147;52.142;9.960;2023-08-20T00:22:38;29.92;;;27.13;;
39442;SDS011;25147;52.142;9.960;2023-08-20T00:25:06;28.35;;;25.55;;
39442;SDS011;25147;52.142;9.960;2023-08-20T00:27:37;30.25;;;27.20;;
39442;SDS011;25147;52.142;9.960;2023-08-20T00:30:08;28.15;;;25.33;;
39442;SDS011;25147;52.142;9.960;2023-08-20T00:32:36;30.40;;;27.45;;
39442;SDS011;25147;52.142;9.960;2023-08-20T00:35:03;28.98;;;26.27;;
39442;SDS011;25147;52.142;9.960;2023-08-20T00:37:32;28.55;;;25.70;;
39442;SDS011;25147;52.142;9.960;2023-08-20T00:40:00;28.33;;;25.73;;
39442;SDS011;25147;52.142;9.960;2023-08-20T00:42:29;28.17;;;25.20;;
39442;SDS011;25147;52.142;9.960;2023-08-20T00:44:56;27.02;;;24.52;;
39442;SDS011;25147;52.142;9.960;2023-08-20T00:47:26;25.85;;;23.35;;
39442;SDS011;25147;52.142;9.960;2023-08-20T00:49:55;26.98;;;24.13;;
39442;SDS011;25147;52.142;9.960;2023-08-20T00:52:24;25.83;;;23.33;;
39442;SDS011;25147;52.142;9.960;2023-08-20T00:54:52;25.42;;;22.85;;
39442;SDS011;25147;52.142;9.960;2023-08-20T00:57:23;25.38;;;22.77;;
39442;SDS011;25147;52.142;9.960;2023-08-20T00:59:53;25.88;;;23.13;;
39442;SDS011;25147;52.142;9.960;2023-08-20T01:02:28;25.77;;;23.13;;
39442;SDS011;25147;52.142;9.960;2023-08-20T01:04:55;25.85;;;23.25;;
39442;SDS011;25147;52.142;9.960;2023-08-20T01:07:24;22.95;;;20.52;;
39442;SDS011;25147;52.142;9.960;2023-08-20T01:09:57;23.52;;;21.10;;
39442;SDS011;25147;52.142;9.960;2023-08-20T01:12:33;23.85;;;21.45;;
39442;SDS011;25147;52.142;9.960;2023-08-20T01:15:06;24.17;;;21.60;;
39442;SDS011;25147;52.142;9.960;2023-08-20T01:17:41;21.90;;;19.80;;
39442;SDS011;25147;52.142;9.960;2023-08-20T01:20:08;21.83;;;19.55;;
39442;SDS011;25147;52.142;9.960;2023-08-20T01:25:59;22.92;;;20.52;;
39442;SDS011;25147;52.142;9.960;2023-08-20T01:28:44;21.50;;;18.30;;
39442;SDS011;25147;52.142;9.960;2023-08-20T01:31:12;21.42;;;19.27;;
39442;SDS011;25147;52.142;9.960;2023-08-20T01:33:41;21.50;;;19.25;;
39442;SDS011;25147;52.142;9.960;2023-08-20T01:36:09;23.45;;;21.15;;
39442;SDS011;25147;52.142;9.960;2023-08-20T01:38:36;22.23;;;19.95;;
39442;SDS011;25147;52.142;9.960;2023-08-20T01:41:04;22.95;;;20.63;;
39442;SDS011;25147;52.142;9.960;2023-08-20T01:43:32;23.80;;;21.23;;
39442;SDS011;25147;52.142;9.960;2023-08-20T01:46:02;22.67;;;20.27;;
39442;SDS011;25147;52.142;9.960;2023-08-20T01:48:34;22.52;;;19.58;;
39442;SDS011;25147;52.142;9.960;2023-08-20T01:51:02;25.83;;;20.85;;
39442;SDS011;25147;52.142;9.960;2023-08-20T01:53:30;21.45;;;19.20;;
39442;SDS011;25147;52.142;9.960;2023-08-20T01:55:58;22.60;;;20.20;;
39442;SDS011;25147;52.142;9.960;2023-08-20T01:58:30;23.15;;;20.38;;
39442;SDS011;25147;52.142;9.960;2023-08-20T02:00:58;21.02;;;18.83;;
39442;SDS011;25147;52.142;9.960;2023-08-20T02:03:30;20.88;;;18.67;;
39442;SDS011;25147;52.142;9.960;2023-08-20T02:05:58;21.40;;;19.15;;
39442;SDS011;25147;52.142;9.960;2023-08-20T02:08:26;21.90;;;17.48;;
39442;SDS011;25147;52.142;9.960;2023-08-20T02:11:00;20.73;;;18.35;;
39442;SDS011;25147;52.142;9.960;2023-08-20T02:13:28;20.95;;;18.13;;
39442;SDS011;25147;52.142;9.960;2023-08-20T02:15:59;21.38;;;18.85;;
39442;SDS011;25147;52.142;9.960;2023-08-20T02:18:27;19.08;;;17.25;;
39442;SDS011;25147;52.142;9.960;2023-08-20T02:20:56;19.55;;;17.58;;
39442;SDS011;25147;52.142;9.960;2023-08-20T02:23:23;18.55;;;16.58;;
39442;SDS011;25147;52.142;9.960;2023-08-20T02:25:54;16.02;;;14.25;;
39442;SDS011;25147;52.142;9.960;2023-08-20T02:28:21;19.58;;;16.80;;
39442;SDS011;25147;52.142;9.960;2023-08-20T02:30:48;17.33;;;15.50;;
39442;SDS011;25147;52.142;9.960;2023-08-20T02:33:15;17.50;;;15.55;;
39442;SDS011;25147;52.142;9.960;2023-08-20T02:35:47;16.77;;;14.95;;
39442;SDS011;25147;52.142;9.960;2023-08-20T02:38:17;16.13;;;14.45;;
39442;SDS011;25147;52.142;9.960;2023-08-20T02:40:45;16.88;;;15.23;;
39442;SDS011;25147;52.142;9.960;2023-08-20T02:43:12;14.75;;;13.35;;
39442;SDS011;25147;52.142;9.960;2023-08-20T02:45:42;16.73;;;14.93;;
39442;SDS011;25147;52.142;9.960;2023-08-20T02:48:10;15.52;;;13.43;;
39442;SDS011;25147;52.142;9.960;2023-08-20T02:50:38;17.80;;;14.13;;
39442;SDS011;25147;52.142;9.960;2023-08-20T02:53:07;15.23;;;13.75;;
39442;SDS011;25147;52.142;9.960;2023-08-20T02:55:36;16.05;;;13.70;;
39442;SDS011;25147;52.142;9.960;2023-08-20T02:58:03;13.85;;;12.40;;
39442;SDS011;25147;52.142;9.960;2023-08-20T03:00:33;13.48;;;12.18;;
39442;SDS011;25147;52.142;9.960;2023-08-20T03:03:02;12.48;;;11.27;;
39442;SDS011;25147;52.142;9.960;2023-08-20T03:05:36;13.93;;;11.73;;
39442;SDS011;25147;52.142;9.960;2023-08-20T03:08:07;12.35;;;10.65;;
39442;SDS011;25147;52.142;9.960;2023-08-20T03:10:39;14.13;;;10.85;;
39442;SDS011;25147;52.142;9.960;2023-08-20T03:13:07;11.32;;;10.15;;
39442;SDS011;25147;52.142;9.960;2023-08-20T03:15:35;12.00;;;9.60;;
39442;SDS011;25147;52.142;9.960;2023-08-20T03:18:03;9.73;;;8.82;;
39442;SDS011;25147;52.142;9.960;2023-08-20T03:20:31;10.57;;;9.02;;
39442;SDS011;25147;52.142;9.960;2023-08-20T03:23:01;11.15;;;9.80;;
39442;SDS011;25147;52.142;9.960;2023-08-20T03:25:28;10.52;;;9.30;;
39442;SDS011;25147;52.142;9.960;2023-08-20T03:27:58;10.85;;;9.73;;
39442;SDS011;25147;52.142;9.960;2023-08-20T03:30:28;10.18;;;8.77;;
39442;SDS011;25147;52.142;9.960;2023-08-20T03:32:57;10.75;;;9.50;;
39442;SDS011;25147;52.142;9.960;2023-08-20T03:35:27;11.07;;;9.90;;
39442;SDS011;25147;52.142;9.960;2023-08-20T03:37:59;12.95;;;8.65;;
39442;SDS011;25147;52.142;9.960;2023-08-20T03:40:28;14.80;;;9.23;;
39442;SDS011;25147;52.142;9.960;2023-08-20T03:43:00;10.73;;;9.45;;
39442;SDS011;25147;52.142;9.960;2023-08-20T03:45:28;10.60;;;9.55;;
39442;SDS011;25147;52.142;9.960;2023-08-20T03:47:56;10.63;;;9.57;;
39442;SDS011;25147;52.142;9.960;2023-08-20T03:50:29;9.90;;;8.88;;
39442;SDS011;25147;52.142;9.960;2023-08-20T03:52:58;11.00;;;8.95;;
39442;SDS011;25147;52.142;9.960;2023-08-20T03:55:27;10.70;;;8.85;;
39442;SDS011;25147;52.142;9.960;2023-08-20T03:57:54;10.65;;;7.88;;
39442;SDS011;25147;52.142;9.960;2023-08-20T04:00:26;9.63;;;8.68;;
39442;SDS011;25147;52.142;9.960;2023-08-20T04:02:54;9.23;;;7.63;;
39442;SDS011;25147;52.142;9.960;2023-08-20T04:05:21;8.90;;;7.78;;
39442;SDS011;25147;52.142;9.960;2023-08-20T04:07:48;10.07;;;8.30;;
39442;SDS011;25147;52.142;9.960;2023-08-20T04:10:16;8.40;;;7.40;;
39442;SDS011;25147;52.142;9.960;2023-08-20T04:12:43;10.38;;;8.73;;
39442;SDS011;25147;52.142;9.960;2023-08-20T04:15:11;7.78;;;7.07;;
39442;SDS011;25147;52.142;9.960;2023-08-20T04:17:40;8.88;;;7.45;;
39442;SDS011;25147;52.142;9.960;2023-08-20T04:20:08;8.00;;;7.25;;
39442;SDS011;25147;52.142;9.960;2023-08-20T04:22:37;8.45;;;7.55;;
39442;SDS011;25147;52.142;9.960;2023-08-20T04:25:04;8.75;;;7.95;;
39442;SDS011;25147;52.142;9.960;2023-08-20T04:27:32;8.13;;;6.90;;
39442;SDS011;25147;52.142;9.960;2023-08-20T04:30:03;8.48;;;7.07;;
39442;SDS011;25147;52.142;9.960;2023-08-20T04:32:31;8.55;;;6.60;;
39442;SDS011;25147;52.142;9.960;2023-08-20T04:35:00;8.70;;;6.57;;
39442;SDS011;25147;52.142;9.960;2023-08-20T04:37:27;7.80;;;7.05;;
39442;SDS011;25147;52.142;9.960;2023-08-20T04:39:55;7.30;;;6.55;;
39442;SDS011;25147;52.142;9.960;2023-08-20T04:42:22;6.88;;;6.20;;
39442;SDS011;25147;52.142;9.960;2023-08-20T04:44:50;9.27;;;7.35;;
39442;SDS011;25147;52.142;9.960;2023-08-20T04:47:17;8.70;;;6.40;;
39442;SDS011;25147;52.142;9.960;2023-08-20T04:49:44;7.03;;;5.90;;
39442;SDS011;25147;52.142;9.960;2023-08-20T04:52:12;7.80;;;5.75;;
39442;SDS011;25147;52.142;9.960;2023-08-20T04:54:40;6.88;;;5.38;;
39442;SDS011;25147;52.142;9.960;2023-08-20T04:57:09;6.78;;;6.10;;
39442;SDS011;25147;52.142;9.960;2023-08-20T04:59:38;6.88;;;6.18;;
39442;SDS011;25147;52.142;9.960;2023-08-20T05:02:08;7.90;;;5.80;;
39442;SDS011;25147;52.142;9.960;2023-08-20T05:04:35;7.57;;;6.45;;
39442;SDS011;25147;52.142;9.960;2023-08-20T05:07:02;6.80;;;6.07;;
39442;SDS011;25147;52.142;9.960;2023-08-20T05:09:32;8.85;;;6.18;;
39442;SDS011;25147;52.142;9.960;2023-08-20T05:12:00;7.03;;;6.20;;
39442;SDS011;25147;52.142;9.960;2023-08-20T05:14:27;12.05;;;6.15;;
39442;SDS011;25147;52.142;9.960;2023-08-20T05:16:55;7.70;;;6.63;;
39442;SDS011;25147;52.142;9.960;2023-08-20T05:19:24;6.97;;;6.28;;
39442;SDS011;25147;52.142;9.960;2023-08-20T05:21:52;7.75;;;5.68;;
39442;SDS011;25147;52.142;9.960;2023-08-20T05:24:22;6.40;;;5.60;;
39442;SDS011;25147;52.142;9.960;2023-08-20T05:26:51;7.57;;;5.95;;
39442;SDS011;25147;52.142;9.960;2023-08-20T05:29:30;7.10;;;6.07;;
39442;SDS011;25147;52.142;9.960;2023-08-20T05:31:58;9.55;;;6.18;;
39442;SDS011;25147;52.142;9.960;2023-08-20T05:34:28;7.57;;;5.90;;
39442;SDS011;25147;52.142;9.960;2023-08-20T05:36:55;7.60;;;6.20;;
39442;SDS011;25147;52.142;9.960;2023-08-20T05:39:23;8.57;;;5.80;;
39442;SDS011;25147;52.142;9.960;2023-08-20T05:41:52;6.32;;;5.72;;
39442;SDS011;25147;52.142;9.960;2023-08-20T05:44:20;7.78;;;6.18;;
39442;SDS011;25147;52.142;9.960;2023-08-20T05:46:48;8.18;;;5.78;;
39442;SDS011;25147;52.142;9.960;2023-08-20T05:49:16;7.90;;;5.93;;
39442;SDS011;25147;52.142;9.960;2023-08-20T05:51:43;8.52;;;6.03;;
39442;SDS011;25147;52.142;9.960;2023-08-20T05:54:13;8.48;;;6.43;;
39442;SDS011;25147;52.142;9.960;2023-08-20T05:56:41;7.03;;;5.40;;
39442;SDS011;25147;52.142;9.960;2023-08-20T05:59:10;8.45;;;6.30;;
39442;SDS011;25147;52.142;9.960;2023-08-20T06:01:38;6.30;;;5.47;;
39442;SDS011;25147;52.142;9.960;2023-08-20T06:04:05;8.88;;;6.18;;
39442;SDS011;25147;52.142;9.960;2023-08-20T06:06:32;7.65;;;6.18;;
39442;SDS011;25147;52.142;9.960;2023-08-20T06:08:59;8.18;;;5.70;;
39442;SDS011;25147;52.142;9.960;2023-08-20T06:11:26;7.13;;;5.57;;
39442;SDS011;25147;52.142;9.960;2023-08-20T06:13:54;7.55;;;6.00;;
39442;SDS011;25147;52.142;9.960;2023-08-20T06:16:22;6.32;;;5.72;;
39442;SDS011;25147;52.142;9.960;2023-08-20T06:18:49;6.13;;;5.53;;
39442;SDS011;25147;52.142;9.960;2023-08-20T06:21:16;9.52;;;5.70;;
39442;SDS011;25147;52.142;9.960;2023-08-20T06:23:43;7.75;;;5.80;;
39442;SDS011;25147;52.142;9.960;2023-08-20T06:26:11;6.80;;;6.07;;
39442;SDS011;25147;52.142;9.960;2023-08-20T06:28:38;7.50;;;6.50;;
39442;SDS011;25147;52.142;9.960;2023-08-20T06:31:05;6.40;;;5.80;;
39442;SDS011;25147;52.142;9.960;2023-08-20T06:33:33;8.80;;;6.03;;
39442;SDS011;25147;52.142;9.960;2023-08-20T06:36:00;8.43;;;6.47;;
39442;SDS011;25147;52.142;9.960;2023-08-20T06:38:27;8.43;;;6.03;;
39442;SDS011;25147;52.142;9.960;2023-08-20T06:40:54;8.27;;;6.43;;
39442;SDS011;25147;52.142;9.960;2023-08-20T06:43:21;6.78;;;5.75;;
39442;SDS011;25147;52.142;9.960;2023-08-20T06:45:48;9.18;;;6.05;;
39442;SDS011;25147;52.142;9.960;2023-08-20T06:48:21;8.48;;;5.68;;
39442;SDS011;25147;52.142;9.960;2023-08-20T06:50:51;6.28;;;5.05;;
39442;SDS011;25147;52.142;9.960;2023-08-20T06:53:18;7.63;;;5.80;;
39442;SDS011;25147;52.142;9.960;2023-08-20T06:55:45;6.28;;;5.45;;
39442;SDS011;25147;52.142;9.960;2023-08-20T06:58:12;8.65;;;6.40;;
39442;SDS011;25147;52.142;9.960;2023-08-20T07:00:39;6.88;;;6.13;;
39442;SDS011;25147;52.142;9.960;2023-08-20T07:03:06;6.63;;;6.00;;
39442;SDS011;25147;52.142;9.960;2023-08-20T07:05:35;7.05;;;6.45;;
39442;SDS011;25147;52.142;9.960;2023-08-20T07:08:03;9.23;;;6.80;;
39442;SDS011;25147;52.142;9.960;2023-08-20T07:10:30;8.85;;;6.63;;
39442;SDS011;25147;52.142;9.960;2023-08-20T07:12:57;9.50;;;7.30;;
39442;SDS011;25147;52.142;9.960;2023-08-20T07:15:24;11.57;;;8.02;;
39442;SDS011;25147;52.142;9.960;2023-08-20T07:17:51;8.43;;;7.32;;
39442;SDS011;25147;52.142;9.960;2023-08-20T07:20:23;8.32;;;6.38;;
39442;SDS011;25147;52.142;9.960;2023-08-20T07:22:53;8.40;;;6.32;;
39442;SDS011;25147;52.142;9.960;2023-08-20T07:25:28;7.25;;;6.38;;
39442;SDS011;25147;52.142;9.960;2023-08-20T07:27:56;7.07;;;6.28;;
39442;SDS011;25147;52.142;9.960;2023-08-20T07:30:24;7.32;;;6.25;;
39442;SDS011;25147;52.142;9.960;2023-08-20T07:32:51;6.55;;;5.32;;
39442;SDS011;25147;52.142;9.960;2023-08-20T07:35:19;8.05;;;5.22;;
39442;SDS011;25147;52.142;9.960;2023-08-20T07:37:46;7.40;;;5.15;;
39442;SDS011;25147;52.142;9.960;2023-08-20T07:40:16;7.97;;;5.45;;
39442;SDS011;25147;52.142;9.960;2023-08-20T07:42:49;7.65;;;5.78;;
39442;SDS011;25147;52.142;9.960;2023-08-20T07:45:17;7.43;;;5.85;;
39442;SDS011;25147;52.142;9.960;2023-08-20T07:47:44;6.20;;;5.03;;
39442;SDS011;25147;52.142;9.960;2023-08-20T07:50:12;7.03;;;5.60;;
39442;SDS011;25147;52.142;9.960;2023-08-20T07:52:39;5.57;;;5.03;;
39442;SDS011;25147;52.142;9.960;2023-08-20T07:55:07;5.88;;;5.22;;
39442;SDS011;25147;52.142;9.960;2023-08-20T07:57:35;5.93;;;4.75;;
39442;SDS011;25147;52.142;9.960;2023-08-20T08:00:04;6.55;;;4.60;;
39442;SDS011;25147;52.142;9.960;2023-08-20T08:02:34;6.15;;;5.55;;
39442;SDS011;25147;52.142;9.960;2023-08-20T08:05:02;7.75;;;4.60;;
39442;SDS011;25147;52.142;9.960;2023-08-20T08:07:29;5.22;;;4.18;;
39442;SDS011;25147;52.142;9.960;2023-08-20T08:09:57;6.38;;;4.47;;
39442;SDS011;25147;52.142;9.960;2023-08-20T08:12:24;5.28;;;4.10;;
39442;SDS011;25147;52.142;9.960;2023-08-20T08:14:54;5.03;;;4.28;;
39442;SDS011;25147;52.142;9.960;2023-08-20T08:17:26;4.95;;;4.30;;
39442;SDS011;25147;52.142;9.960;2023-08-20T08:19:53;5.18;;;4.30;;
39442;SDS011;25147;52.142;9.960;2023-08-20T08:22:21;5.03;;;4.47;;
39442;SDS011;25147;52.142;9.960;2023-08-20T08:24:48;6.13;;;4.50;;
39442;SDS011;25147;52.142;9.960;2023-08-20T08:27:16;5.07;;;3.70;;
39442;SDS011;25147;52.142;9.960;2023-08-20T08:29:46;6.53;;;3.97;;
39442;SDS011;25147;52.142;9.960;2023-08-20T08:32:13;4.43;;;3.72;;
39442;SDS011;25147;52.142;9.960;2023-08-20T08:34:42;5.90;;;4.45;;
39442;SDS011;25147;52.142;9.960;2023-08-20T08:37:09;4.57;;;3.80;;
39442;SDS011;25147;52.142;9.960;2023-08-20T08:39:36;5.13;;;4.18;;
39442;SDS011;25147;52.142;9.960;2023-08-20T08:42:04;5.53;;;4.85;;
39442;SDS011;25147;52.142;9.960;2023-08-20T08:44:32;5.45;;;4.45;;
39442;SDS011;25147;52.142;9.960;2023-08-20T08:47:00;5.03;;;3.97;;
39442;SDS011;25147;52.142;9.960;2023-08-20T08:49:29;5.55;;;4.40;;
39442;SDS011;25147;52.142;9.960;2023-08-20T08:52:01;6.03;;;4.28;;
39442;SDS011;25147;52.142;9.960;2023-08-20T08:54:32;5.80;;;3.90;;
39442;SDS011;25147;52.142;9.960;2023-08-20T08:56:59;7.03;;;3.90;;
39442;SDS011;25147;52.142;9.960;2023-08-20T08:59:27;4.55;;;3.72;;
39442;SDS011;25147;52.142;9.960;2023-08-20T09:01:54;4.40;;;3.67;;
39442;SDS011;25147;52.142;9.960;2023-08-20T09:04:22;4.78;;;3.45;;
39442;SDS011;25147;52.142;9.960;2023-08-20T09:06:52;3.83;;;3.40;;
39442;SDS011;25147;52.142;9.960;2023-08-20T09:09:24;3.72;;;3.42;;
39442;SDS011;25147;52.142;9.960;2023-08-20T09:11:58;4.07;;;3.53;;
39442;SDS011;25147;52.142;9.960;2023-08-20T09:14:27;3.67;;;3.00;;
39442;SDS011;25147;52.142;9.960;2023-08-20T09:16:55;6.47;;;3.80;;
39442;SDS011;25147;52.142;9.960;2023-08-20T09:19:24;4.93;;;3.58;;
39442;SDS011;25147;52.142;9.960;2023-08-20T09:21:55;4.35;;;3.40;;
39442;SDS011;25147;52.142;9.960;2023-08-20T09:24:31;2.90;;;2.70;;
39442;SDS011;25147;52.142;9.960;2023-08-20T09:27:01;2.80;;;2.53;;
39442;SDS011;25147;52.142;9.960;2023-08-20T09:29:31;3.10;;;2.53;;
39442;SDS011;25147;52.142;9.960;2023-08-20T09:32:02;2.92;;;2.17;;
39442;SDS011;25147;52.142;9.960;2023-08-20T09:34:36;2.88;;;2.17;;
39442;SDS011;25147;52.142;9.960;2023-08-20T09:37:07;2.58;;;2.38;;
39442;SDS011;25147;52.142;9.960;2023-08-20T09:39:39;2.83;;;2.50;;
39442;SDS011;25147;52.142;9.960;2023-08-20T09:42:07;3.50;;;3.20;;
39442;SDS011;25147;52.142;9.960;2023-08-20T09:44:36;3.75;;;2.75;;
39442;SDS011;25147;52.142;9.960;2023-08-20T09:47:05;3.30;;;2.50;;
39442;SDS011;25147;52.142;9.960;2023-08-20T09:49:36;3.22;;;2.40;;
39442;SDS011;25147;52.142;9.960;2023-08-20T09:52:06;2.58;;;2.30;;
39442;SDS011;25147;52.142;9.960;2023-08-20T09:54:39;3.47;;;2.50;;
39442;SDS011;25147;52.142;9.960;2023-08-20T09:57:21;2.30;;;2.10;;
39442;SDS011;25147;52.142;9.960;2023-08-20T09:59:57;2.47;;;2.03;;
39442;SDS011;25147;52.142;9.960;2023-08-20T10:02:25;2.08;;;1.88;;
39442;SDS011;25147;52.142;9.960;2023-08-20T10:04:53;4.32;;;2.55;;
39442;SDS011;25147;52.142;9.960;2023-08-20T10:07:22;2.33;;;2.13;;
39442;SDS011;25147;52.142;9.960;2023-08-20T10:09:52;3.15;;;2.38;;
39442;SDS011;25147;52.142;9.960;2023-08-20T10:12:19;2.55;;;2.00;;
39442;SDS011;25147;52.142;9.960;2023-08-20T10:14:47;2.78;;;2.00;;
39442;SDS011;25147;52.142;9.960;2023-08-20T10:17:18;3.42;;;2.20;;
39442;SDS011;25147;52.142;9.960;2023-08-20T10:19:51;4.82;;;2.75;;
39442;SDS011;25147;52.142;9.960;2023-08-20T10:22:26;3.35;;;3.05;;
39442;SDS011;25147;52.142;9.960;2023-08-20T10:25:02;3.97;;;2.20;;
39442;SDS011;25147;52.142;9.960;2023-08-20T10:27:33;4.55;;;2.38;;
39442;SDS011;25147;52.142;9.960;2023-08-20T10:30:02;5.22;;;2.50;;
39442;SDS011;25147;52.142;9.960;2023-08-20T10:32:44;3.00;;;2.10;;
39442;SDS011;25147;52.142;9.960;2023-08-20T10:35:22;3.17;;;2.15;;
39442;SDS011;25147;52.142;9.960;2023-08-20T10:38:02;2.55;;;2.00;;
39442;SDS011;25147;52.142;9.960;2023-08-20T10:40:51;3.30;;;2.20;;
39442;SDS011;25147;52.142;9.960;2023-08-20T10:43:26;3.33;;;2.40;;
39442;SDS011;25147;52.142;9.960;2023-08-20T10:46:08;3.35;;;2.25;;
39442;SDS011;25147;52.142;9.960;2023-08-20T10:48:41;3.10;;;2.00;;
39442;SDS011;25147;52.142;9.960;2023-08-20T10:51:10;2.28;;;2.08;;
39442;SDS011;25147;52.142;9.960;2023-08-20T10:53:40;2.83;;;1.90;;
39442;SDS011;25147;52.142;9.960;2023-08-20T10:56:14;2.47;;;2.28;;
39442;SDS011;25147;52.142;9.960;2023-08-20T10:58:44;4.00;;;2.42;;
39442;SDS011;25147;52.142;9.960;2023-08-20T11:01:12;2.97;;;1.98;;
39442;SDS011;25147;52.142;9.960;2023-08-20T11:03:44;1.90;;;1.80;;
39442;SDS011;25147;52.142;9.960;2023-08-20T11:06:12;2.67;;;1.98;;
39442;SDS011;25147;52.142;9.960;2023-08-20T11:08:40;2.30;;;2.10;;
39442;SDS011;25147;52.142;9.960;2023-08-20T11:11:08;3.28;;;2.30;;
39442;SDS011;25147;52.142;9.960;2023-08-20T11:13:37;2.58;;;2.38;;
39442;SDS011;25147;52.142;9.960;2023-08-20T11:16:05;3.78;;;2.80;;
39442;SDS011;25147;52.142;9.960;2023-08-20T11:18:33;3.38;;;2.58;;
39442;SDS011;25147;52.142;9.960;2023-08-20T11:21:00;3.15;;;2.83;;
39442;SDS011;25147;52.142;9.960;2023-08-20T11:23:28;3.35;;;2.53;;
39442;SDS011;25147;52.142;9.960;2023-08-20T11:25:59;3.92;;;2.60;;
39442;SDS011;25147;52.142;9.960;2023-08-20T11:28:27;3.58;;;2.88;;
39442;SDS011;25147;52.142;9.960;2023-08-20T11:30:56;3.20;;;2.88;;
39442;SDS011;25147;52.142;9.960;2023-08-20T11:33:23;4.90;;;3.10;;
39442;SDS011;25147;52.142;9.960;2023-08-20T11:35:51;4.65;;;3.47;;
39442;SDS011;25147;52.142;9.960;2023-08-20T11:38:22;3.53;;;3.22;;
39442;SDS011;25147;52.142;9.960;2023-08-20T11:40:51;3.60;;;3.30;;
39442;SDS011;25147;52.142;9.960;2023-08-20T11:43:21;4.80;;;3.38;;
39442;SDS011;25147;52.142;9.960;2023-08-20T11:46:03;4.50;;;3.25;;
39442;SDS011;25147;52.142;9.960;2023-08-20T11:48:32;5.40;;;3.35;;
39442;SDS011;25147;52.142;9.960;2023-08-20T11:51:02;3.33;;;3.03;;
39442;SDS011;25147;52.142;9.960;2023-08-20T11:53:39;3.92;;;3.13;;
39442;SDS011;25147;52.142;9.960;2023-08-20T11:56:12;4.93;;;3.05;;
39442;SDS011;25147;52.142;9.960;2023-08-20T11:58:40;3.85;;;3.45;;
39442;SDS011;25147;52.142;9.960;2023-08-20T12:01:14;4.10;;;3.63;;
39442;SDS011;25147;52.142;9.960;2023-08-20T12:03:45;4.00;;;3.47;;
39442;SDS011;25147;52.142;9.960;2023-08-20T12:06:19;3.45;;;3.17;;
39442;SDS011;25147;52.142;9.960;2023-08-20T12:08:48;3.50;;;3.20;;
39442;SDS011;25147;52.142;9.960;2023-08-20T12:11:23;3.88;;;3.47;;
39442;SDS011;25147;52.142;9.960;2023-08-20T12:13:56;4.72;;;4.15;;
39442;SDS011;25147;52.142;9.960;2023-08-20T12:16:38;3.78;;;3.42;;
39442;SDS011;25147;52.142;9.960;2023-08-20T12:19:05;3.88;;;3.47;;
39442;SDS011;25147;52.142;9.960;2023-08-20T12:21:38;4.00;;;3.70;;
39442;SDS011;25147;52.142;9.960;2023-08-20T12:24:08;3.80;;;3.50;;
39442;SDS011;25147;52.142;9.960;2023-08-20T12:26:41;4.03;;;3.58;;
39442;SDS011;25147;52.142;9.960;2023-08-20T12:29:11;4.35;;;3.95;;
39442;SDS011;25147;52.142;9.960;2023-08-20T12:31:51;4.22;;;3.92;;
39442;SDS011;25147;52.142;9.960;2023-08-20T12:34:19;4.40;;;4.00;;
39442;SDS011;25147;52.142;9.960;2023-08-20T12:36:47;6.00;;;4.13;;
39442;SDS011;25147;52.142;9.960;2023-08-20T12:39:23;4.43;;;4.10;;
39442;SDS011;25147;52.142;9.960;2023-08-20T12:42:02;4.40;;;4.00;;
39442;SDS011;25147;52.142;9.960;2023-08-20T12:44:36;4.95;;;4.45;;
39442;SDS011;25147;52.142;9.960;2023-08-20T12:47:16;4.50;;;4.05;;
39442;SDS011;25147;52.142;9.960;2023-08-20T12:49:43;3.80;;;3.50;;
39442;SDS011;25147;52.142;9.960;2023-08-20T12:52:18;3.90;;;3.55;;
39442;SDS011;25147;52.142;9.960;2023-08-20T12:54:45;4.57;;;3.80;;
39442;SDS011;25147;52.142;9.960;2023-08-20T12:57:12;4.40;;;4.00;;
39442;SDS011;25147;52.142;9.960;2023-08-20T12:59:39;5.13;;;3.85;;
39442;SDS011;25147;52.142;9.960;2023-08-20T13:02:06;4.10;;;3.70;;
39442;SDS011;25147;52.142;9.960;2023-08-20T13:04:39;4.82;;;4.35;;
39442;SDS011;25147;52.142;9.960;2023-08-20T13:07:07;4.57;;;4.20;;
39442;SDS011;25147;52.142;9.960;2023-08-20T13:09:35;5.40;;;4.90;;
39442;SDS011;25147;52.142;9.960;2023-08-20T13:12:07;5.50;;;4.63;;
39442;SDS011;25147;52.142;9.960;2023-08-20T13:14:38;5.93;;;4.70;;
39442;SDS011;25147;52.142;9.960;2023-08-20T13:17:25;4.75;;;4.30;;
39442;SDS011;25147;52.142;9.960;2023-08-20T13:20:05;5.07;;;4.32;;
39442;SDS011;25147;52.142;9.960;2023-08-20T13:22:35;4.82;;;4.22;;
39442;SDS011;25147;52.142;9.960;2023-08-20T13:25:05;4.45;;;4.15;;
39442;SDS011;25147;52.142;9.960;2023-08-20T13:27:36;4.45;;;4.10;;
39442;SDS011;25147;52.142;9.960;2023-08-20T13:30:10;4.60;;;4.13;;
39442;SDS011;25147;52.142;9.960;2023-08-20T13:32:38;4.28;;;4.00;;
39442;SDS011;25147;52.142;9.960;2023-08-20T13:35:09;4.78;;;4.38;;
39442;SDS011;25147;52.142;9.960;2023-08-20T13:37:37;4.70;;;4.20;;
39442;SDS011;25147;52.142;9.960;2023-08-20T13:40:04;6.05;;;4.20;;
39442;SDS011;25147;52.142;9.960;2023-08-20T13:42:34;4.55;;;4.15;;
39442;SDS011;25147;52.142;9.960;2023-08-20T13:45:04;4.57;;;4.18;;
39442;SDS011;25147;52.142;9.960;2023-08-20T13:47:34;4.18;;;3.78;;
39442;SDS011;25147;52.142;9.960;2023-08-20T13:50:02;4.57;;;4.18;;
39442;SDS011;25147;52.142;9.960;2023-08-20T13:52:41;5.00;;;4.50;;
39442;SDS011;25147;52.142;9.960;2023-08-20T13:55:13;5.03;;;4.53;;
39442;SDS011;25147;52.142;9.960;2023-08-20T13:57:42;4.95;;;4.55;;
39442;SDS011;25147;52.142;9.960;2023-08-20T14:00:14;5.38;;;4.88;;
39442;SDS011;25147;52.142;9.960;2023-08-20T14:03:04;5.00;;;4.60;;
39442;SDS011;25147;52.142;9.960;2023-08-20T14:05:33;4.60;;;4.30;;
39442;SDS011;25147;52.142;9.960;2023-08-20T14:08:13;5.00;;;4.10;;
39442;SDS011;25147;52.142;9.960;2023-08-20T14:10:40;4.88;;;4.47;;
39442;SDS011;25147;52.142;9.960;2023-08-20T14:13:16;4.50;;;4.07;;
39442;SDS011;25147;52.142;9.960;2023-08-20T14:15:51;4.95;;;4.18;;
39442;SDS011;25147;52.142;9.960;2023-08-20T14:18:26;5.50;;;4.38;;
39442;SDS011;25147;52.142;9.960;2023-08-20T14:21:01;4.57;;;4.18;;
39442;SDS011;25147;52.142;9.960;2023-08-20T14:23:31;6.25;;;4.30;;
39442;SDS011;25147;52.142;9.960;2023-08-20T14:26:11;7.30;;;4.25;;
39442;SDS011;25147;52.142;9.960;2023-08-20T14:28:38;5.60;;;4.82;;
39442;SDS011;25147;52.142;9.960;2023-08-20T14:31:11;4.85;;;4.35;;
39442;SDS011;25147;52.142;9.960;2023-08-20T14:33:38;5.32;;;4.85;;
39442;SDS011;25147;52.142;9.960;2023-08-20T14:36:05;4.80;;;4.40;;
39442;SDS011;25147;52.142;9.960;2023-08-20T14:38:41;4.40;;;4.10;;
39442;SDS011;25147;52.142;9.960;2023-08-20T14:41:09;4.90;;;4.50;;
39442;SDS011;25147;52.142;9.960;2023-08-20T14:43:39;4.90;;;4.40;;
39442;SDS011;25147;52.142;9.960;2023-08-20T14:46:10;4.82;;;4.40;;
39442;SDS011;25147;52.142;9.960;2023-08-20T14:48:37;5.90;;;5.32;;
39442;SDS011;25147;52.142;9.960;2023-08-20T14:51:07;5.13;;;4.63;;
39442;SDS011;25147;52.142;9.960;2023-08-20T14:53:42;4.68;;;4.20;;
39442;SDS011;25147;52.142;9.960;2023-08-20T14:56:24;5.03;;;4.38;;
39442;SDS011;25147;52.142;9.960;2023-08-20T14:58:56;5.25;;;4.43;;
39442;SDS011;25147;52.142;9.960;2023-08-20T15:01:47;4.28;;;3.95;;